sensor_id;sensor_type;location;lat;lon;timestamp;temperature;humidity
20726;DHT22;10524;48.132;8.518;2023-03-25T00:00:56;4.80;99.90
20726;DHT22;10524;48.132;8.518;2023-03-25T00:03:27;4.90;99.90
20726;DHT22;10524;48.132;8.518;2023-03-25T00:05:53;5.10;99.90
20726;DHT22;10524;48.132;8.518;2023-03-25T00:08:20;5.20;99.90
20726;DHT22;10524;48.132;8.518;2023-03-25T00:10:51;5.30;99.90
20726;DHT22;10524;48.132;8.518;2023-03-25T00:13:17;5.40;99.90
20726;DHT22;10524;48.132;8.518;2023-03-25T00:15:43;5.50;99.90
20726;DHT22;10524;48.132;8.518;2023-03-25T00:18:12;5.50;99.90
20726;DHT22;10524;48.132;8.518;2023-03-25T00:20:38;5.50;99.90
20726;DHT22;10524;48.132;8.518;2023-03-25T00:23:13;5.60;99.90
20726;DHT22;10524;48.132;8.518;2023-03-25T00:25:38;5.60;99.90
20726;DHT22;10524;48.132;8.518;2023-03-25T00:28:04;5.60;99.90
20726;DHT22;10524;48.132;8.518;2023-03-25T00:30:30;5.70;99.90
20726;DHT22;10524;48.132;8.518;2023-03-25T00:32:56;5.70;99.90
20726;DHT22;10524;48.132;8.518;2023-03-25T00:35:22;5.60;99.90
20726;DHT22;10524;48.132;8.518;2023-03-25T00:37:50;5.60;99.90
20726;DHT22;10524;48.132;8.518;2023-03-25T00:40:26;5.60;99.90
20726;DHT22;10524;48.132;8.518;2023-03-25T00:42:53;5.50;99.90
20726;DHT22;10524;48.132;8.518;2023-03-25T00:45:19;5.40;99.90
20726;DHT22;10524;48.132;8.518;2023-03-25T00:47:45;5.30;99.90
20726;DHT22;10524;48.132;8.518;2023-03-25T00:50:11;5.10;99.90
20726;DHT22;10524;48.132;8.518;2023-03-25T00:52:37;4.90;99.90
20726;DHT22;10524;48.132;8.518;2023-03-25T00:55:04;4.70;99.90
20726;DHT22;10524;48.132;8.518;2023-03-25T00:57:30;4.40;99.90
20726;DHT22;10524;48.132;8.518;2023-03-25T00:59:56;4.30;99.90
20726;DHT22;10524;48.132;8.518;2023-03-25T01:02:22;4.40;99.90
20726;DHT22;10524;48.132;8.518;2023-03-25T01:04:48;4.50;99.90
20726;DHT22;10524;48.132;8.518;2023-03-25T01:07:15;4.40;99.90
20726;DHT22;10524;48.132;8.518;2023-03-25T01:09:41;4.40;99.90
20726;DHT22;10524;48.132;8.518;2023-03-25T01:12:07;4.40;99.90
20726;DHT22;10524;48.132;8.518;2023-03-25T01:14:33;4.50;99.90
20726;DHT22;10524;48.132;8.518;2023-03-25T01:16:59;4.70;99.90
20726;DHT22;10524;48.132;8.518;2023-03-25T01:19:24;4.80;99.90
20726;DHT22;10524;48.132;8.518;2023-03-25T01:21:50;4.90;99.90
20726;DHT22;10524;48.132;8.518;2023-03-25T01:24:16;4.90;99.90
20726;DHT22;10524;48.132;8.518;2023-03-25T01:26:43;5.00;99.90
20726;DHT22;10524;48.132;8.518;2023-03-25T01:29:11;5.20;99.90
20726;DHT22;10524;48.132;8.518;2023-03-25T01:31:37;5.30;99.90
20726;DHT22;10524;48.132;8.518;2023-03-25T01:34:03;5.40;99.90
20726;DHT22;10524;48.132;8.518;2023-03-25T01:36:29;5.50;99.90
20726;DHT22;10524;48.132;8.518;2023-03-25T01:38:56;5.50;99.90
20726;DHT22;10524;48.132;8.518;2023-03-25T01:41:24;5.20;99.90
20726;DHT22;10524;48.132;8.518;2023-03-25T01:46:31;4.70;99.90
20726;DHT22;10524;48.132;8.518;2023-03-25T01:48:58;4.50;99.90
20726;DHT22;10524;48.132;8.518;2023-03-25T01:51:31;4.40;99.90
20726;DHT22;10524;48.132;8.518;2023-03-25T01:53:58;4.20;99.90
20726;DHT22;10524;48.132;8.518;2023-03-25T01:56:29;4.00;99.90
20726;DHT22;10524;48.132;8.518;2023-03-25T01:58:57;3.80;99.90
20726;DHT22;10524;48.132;8.518;2023-03-25T02:01:23;3.70;99.90
20726;DHT22;10524;48.132;8.518;2023-03-25T02:03:52;3.70;99.90
20726;DHT22;10524;48.132;8.518;2023-03-25T02:06:23;3.70;99.90
20726;DHT22;10524;48.132;8.518;2023-03-25T02:08:52;3.80;99.90
20726;DHT22;10524;48.132;8.518;2023-03-25T02:11:19;3.80;99.90
20726;DHT22;10524;48.132;8.518;2023-03-25T02:13:44;3.80;99.90
20726;DHT22;10524;48.132;8.518;2023-03-25T02:21:59;4.10;99.90
20726;DHT22;10524;48.132;8.518;2023-03-25T02:24:49;4.60;99.90
20726;DHT22;10524;48.132;8.518;2023-03-25T02:27:26;4.80;99.90
20726;DHT22;10524;48.132;8.518;2023-03-25T02:30:25;5.00;99.90
20726;DHT22;10524;48.132;8.518;2023-03-25T02:46:59;4.90;99.90
20726;DHT22;10524;48.132;8.518;2023-03-25T02:49:35;4.70;99.90
20726;DHT22;10524;48.132;8.518;2023-03-25T02:52:15;4.60;99.90
20726;DHT22;10524;48.132;8.518;2023-03-25T02:54:43;4.60;99.90
20726;DHT22;10524;48.132;8.518;2023-03-25T02:57:11;4.60;99.90
20726;DHT22;10524;48.132;8.518;2023-03-25T02:59:39;4.50;99.90
20726;DHT22;10524;48.132;8.518;2023-03-25T03:02:09;4.60;99.90
20726;DHT22;10524;48.132;8.518;2023-03-25T03:04:54;4.60;99.90
20726;DHT22;10524;48.132;8.518;2023-03-25T03:07:34;4.60;99.90
20726;DHT22;10524;48.132;8.518;2023-03-25T03:15:52;4.70;99.90
20726;DHT22;10524;48.132;8.518;2023-03-25T03:18:47;4.60;99.90
20726;DHT22;10524;48.132;8.518;2023-03-25T03:21:40;4.70;99.90
20726;DHT22;10524;48.132;8.518;2023-03-25T03:29:47;4.60;99.90
20726;DHT22;10524;48.132;8.518;2023-03-25T03:32:29;4.60;99.90
20726;DHT22;10524;48.132;8.518;2023-03-25T03:35:16;4.70;99.90
20726;DHT22;10524;48.132;8.518;2023-03-25T03:37:49;4.60;99.90
20726;DHT22;10524;48.132;8.518;2023-03-25T03:40:19;4.60;99.90
20726;DHT22;10524;48.132;8.518;2023-03-25T03:43:17;4.50;99.90
20726;DHT22;10524;48.132;8.518;2023-03-25T03:45:52;4.50;99.90
20726;DHT22;10524;48.132;8.518;2023-03-25T03:48:26;4.50;99.90
20726;DHT22;10524;48.132;8.518;2023-03-25T03:50:53;4.50;99.90
20726;DHT22;10524;48.132;8.518;2023-03-25T03:53:51;4.40;99.90
20726;DHT22;10524;48.132;8.518;2023-03-25T03:56:27;4.30;99.90
20726;DHT22;10524;48.132;8.518;2023-03-25T03:58:57;4.30;99.90
20726;DHT22;10524;48.132;8.518;2023-03-25T04:01:45;4.20;99.90
20726;DHT22;10524;48.132;8.518;2023-03-25T04:04:22;4.00;99.90
20726;DHT22;10524;48.132;8.518;2023-03-25T04:09:53;4.10;99.90
20726;DHT22;10524;48.132;8.518;2023-03-25T04:12:25;4.00;99.90
20726;DHT22;10524;48.132;8.518;2023-03-25T04:14:54;3.90;99.90
20726;DHT22;10524;48.132;8.518;2023-03-25T04:17:21;3.80;99.90
20726;DHT22;10524;48.132;8.518;2023-03-25T04:19:47;3.80;99.90
20726;DHT22;10524;48.132;8.518;2023-03-25T04:22:15;3.60;99.90
20726;DHT22;10524;48.132;8.518;2023-03-25T04:24:41;3.50;99.90
20726;DHT22;10524;48.132;8.518;2023-03-25T04:27:08;3.40;99.90
20726;DHT22;10524;48.132;8.518;2023-03-25T04:29:38;3.30;99.90
20726;DHT22;10524;48.132;8.518;2023-03-25T04:32:05;3.30;99.90
20726;DHT22;10524;48.132;8.518;2023-03-25T04:34:32;3.50;99.90
20726;DHT22;10524;48.132;8.518;2023-03-25T04:36:58;3.40;99.90
20726;DHT22;10524;48.132;8.518;2023-03-25T04:39:23;3.40;99.90
20726;DHT22;10524;48.132;8.518;2023-03-25T04:41:50;3.40;99.90
20726;DHT22;10524;48.132;8.518;2023-03-25T04:44:18;3.40;99.90
20726;DHT22;10524;48.132;8.518;2023-03-25T04:46:46;3.20;99.90
20726;DHT22;10524;48.132;8.518;2023-03-25T04:49:20;3.10;99.90
20726;DHT22;10524;48.132;8.518;2023-03-25T04:51:47;3.10;99.90
20726;DHT22;10524;48.132;8.518;2023-03-25T04:54:16;3.10;99.90
20726;DHT22;10524;48.132;8.518;2023-03-25T04:56:41;3.10;99.90
20726;DHT22;10524;48.132;8.518;2023-03-25T04:59:07;3.10;99.90
20726;DHT22;10524;48.132;8.518;2023-03-25T05:01:36;3.30;99.90
20726;DHT22;10524;48.132;8.518;2023-03-25T05:04:03;3.30;99.90
20726;DHT22;10524;48.132;8.518;2023-03-25T05:06:36;3.40;99.90
20726;DHT22;10524;48.132;8.518;2023-03-25T05:09:07;3.40;99.90
20726;DHT22;10524;48.132;8.518;2023-03-25T05:11:35;3.30;99.90
20726;DHT22;10524;48.132;8.518;2023-03-25T05:14:07;3.50;99.90
20726;DHT22;10524;48.132;8.518;2023-03-25T05:16:33;3.70;99.90
20726;DHT22;10524;48.132;8.518;2023-03-25T05:19:00;3.70;99.90
20726;DHT22;10524;48.132;8.518;2023-03-25T05:21:31;3.80;99.90
20726;DHT22;10524;48.132;8.518;2023-03-25T05:23:57;3.90;99.90
20726;DHT22;10524;48.132;8.518;2023-03-25T05:26:26;3.90;99.90
20726;DHT22;10524;48.132;8.518;2023-03-25T05:28:53;4.00;99.90
20726;DHT22;10524;48.132;8.518;2023-03-25T05:31:21;4.10;99.90
20726;DHT22;10524;48.132;8.518;2023-03-25T05:33:46;4.10;99.90
20726;DHT22;10524;48.132;8.518;2023-03-25T05:36:13;4.10;99.90
20726;DHT22;10524;48.132;8.518;2023-03-25T05:38:41;4.10;99.90
20726;DHT22;10524;48.132;8.518;2023-03-25T05:41:10;4.10;99.90
20726;DHT22;10524;48.132;8.518;2023-03-25T05:43:39;4.00;99.90
20726;DHT22;10524;48.132;8.518;2023-03-25T05:46:05;4.00;99.90
20726;DHT22;10524;48.132;8.518;2023-03-25T05:48:31;4.00;99.90
20726;DHT22;10524;48.132;8.518;2023-03-25T05:51:00;4.00;99.90
20726;DHT22;10524;48.132;8.518;2023-03-25T05:53:27;3.90;99.90
20726;DHT22;10524;48.132;8.518;2023-03-25T05:55:55;3.90;99.90
20726;DHT22;10524;48.132;8.518;2023-03-25T05:58:21;4.00;99.90
20726;DHT22;10524;48.132;8.518;2023-03-25T06:00:46;4.00;99.90
20726;DHT22;10524;48.132;8.518;2023-03-25T06:03:13;4.00;99.90
20726;DHT22;10524;48.132;8.518;2023-03-25T06:05:39;4.10;99.90
20726;DHT22;10524;48.132;8.518;2023-03-25T06:08:05;4.00;99.90
20726;DHT22;10524;48.132;8.518;2023-03-25T06:10:31;4.00;99.90
20726;DHT22;10524;48.132;8.518;2023-03-25T06:12:57;4.10;99.90
20726;DHT22;10524;48.132;8.518;2023-03-25T06:15:23;4.10;99.90
20726;DHT22;10524;48.132;8.518;2023-03-25T06:17:58;4.10;99.90
20726;DHT22;10524;48.132;8.518;2023-03-25T06:20:23;4.10;99.90
20726;DHT22;10524;48.132;8.518;2023-03-25T06:22:49;4.10;99.90
20726;DHT22;10524;48.132;8.518;2023-03-25T06:25:17;4.20;99.90
20726;DHT22;10524;48.132;8.518;2023-03-25T06:27:46;4.20;99.90
20726;DHT22;10524;48.132;8.518;2023-03-25T06:30:18;4.20;99.90
20726;DHT22;10524;48.132;8.518;2023-03-25T06:32:44;4.30;99.90
20726;DHT22;10524;48.132;8.518;2023-03-25T06:35:11;4.30;99.90
20726;DHT22;10524;48.132;8.518;2023-03-25T06:37:37;4.30;99.90
20726;DHT22;10524;48.132;8.518;2023-03-25T06:40:04;4.20;99.90
20726;DHT22;10524;48.132;8.518;2023-03-25T06:42:31;4.30;99.90
20726;DHT22;10524;48.132;8.518;2023-03-25T06:44:57;4.40;99.90
20726;DHT22;10524;48.132;8.518;2023-03-25T06:47:24;4.40;99.90
20726;DHT22;10524;48.132;8.518;2023-03-25T06:49:50;4.50;99.90
20726;DHT22;10524;48.132;8.518;2023-03-25T06:52:15;4.50;99.90
20726;DHT22;10524;48.132;8.518;2023-03-25T06:54:41;4.60;99.90
20726;DHT22;10524;48.132;8.518;2023-03-25T06:57:07;4.60;99.90
20726;DHT22;10524;48.132;8.518;2023-03-25T06:59:32;4.60;99.90
20726;DHT22;10524;48.132;8.518;2023-03-25T07:01:58;4.70;99.90
20726;DHT22;10524;48.132;8.518;2023-03-25T07:04:24;4.90;99.90
20726;DHT22;10524;48.132;8.518;2023-03-25T07:06:50;4.90;99.90
20726;DHT22;10524;48.132;8.518;2023-03-25T07:09:16;4.90;99.90
20726;DHT22;10524;48.132;8.518;2023-03-25T07:11:42;5.10;99.90
20726;DHT22;10524;48.132;8.518;2023-03-25T07:14:08;5.20;99.90
20726;DHT22;10524;48.132;8.518;2023-03-25T07:16:33;5.30;99.90
20726;DHT22;10524;48.132;8.518;2023-03-25T07:18:59;5.40;99.90
20726;DHT22;10524;48.132;8.518;2023-03-25T07:21:25;5.50;99.90
20726;DHT22;10524;48.132;8.518;2023-03-25T07:23:51;5.60;99.90
20726;DHT22;10524;48.132;8.518;2023-03-25T07:26:17;5.60;99.90
20726;DHT22;10524;48.132;8.518;2023-03-25T07:28:43;5.40;99.90
20726;DHT22;10524;48.132;8.518;2023-03-25T07:31:12;5.40;99.90
20726;DHT22;10524;48.132;8.518;2023-03-25T07:33:58;5.30;99.90
20726;DHT22;10524;48.132;8.518;2023-03-25T07:36:25;5.40;99.90
20726;DHT22;10524;48.132;8.518;2023-03-25T07:38:51;5.50;99.90
20726;DHT22;10524;48.132;8.518;2023-03-25T07:41:18;5.70;99.90
20726;DHT22;10524;48.132;8.518;2023-03-25T07:43:43;5.80;99.90
20726;DHT22;10524;48.132;8.518;2023-03-25T07:46:10;5.80;99.90
20726;DHT22;10524;48.132;8.518;2023-03-25T07:48:36;5.70;99.90
20726;DHT22;10524;48.132;8.518;2023-03-25T07:51:01;5.70;99.90
20726;DHT22;10524;48.132;8.518;2023-03-25T07:53:27;5.80;99.90
20726;DHT22;10524;48.132;8.518;2023-03-25T07:55:53;5.70;99.90
20726;DHT22;10524;48.132;8.518;2023-03-25T07:58:19;5.60;99.90
20726;DHT22;10524;48.132;8.518;2023-03-25T08:00:45;5.60;99.90
20726;DHT22;10524;48.132;8.518;2023-03-25T08:03:11;5.50;99.90
20726;DHT22;10524;48.132;8.518;2023-03-25T08:05:37;5.50;99.90
20726;DHT22;10524;48.132;8.518;2023-03-25T08:08:07;5.60;99.90
20726;DHT22;10524;48.132;8.518;2023-03-25T08:10:33;5.80;99.90
20726;DHT22;10524;48.132;8.518;2023-03-25T08:12:59;5.90;99.90
20726;DHT22;10524;48.132;8.518;2023-03-25T08:15:25;5.90;99.90
20726;DHT22;10524;48.132;8.518;2023-03-25T08:17:51;5.70;99.90
20726;DHT22;10524;48.132;8.518;2023-03-25T08:20:17;5.60;99.90
20726;DHT22;10524;48.132;8.518;2023-03-25T08:22:47;5.50;99.90
20726;DHT22;10524;48.132;8.518;2023-03-25T08:25:12;5.50;99.90
20726;DHT22;10524;48.132;8.518;2023-03-25T08:27:39;5.40;99.90
20726;DHT22;10524;48.132;8.518;2023-03-25T08:30:05;5.50;99.90
20726;DHT22;10524;48.132;8.518;2023-03-25T08:32:35;5.50;99.90
20726;DHT22;10524;48.132;8.518;2023-03-25T08:35:03;5.70;99.90
20726;DHT22;10524;48.132;8.518;2023-03-25T08:37:30;6.10;99.90
20726;DHT22;10524;48.132;8.518;2023-03-25T08:40:00;6.70;99.90
20726;DHT22;10524;48.132;8.518;2023-03-25T08:42:26;6.90;99.90
20726;DHT22;10524;48.132;8.518;2023-03-25T08:44:51;7.80;99.90
20726;DHT22;10524;48.132;8.518;2023-03-25T08:47:17;7.90;99.90
20726;DHT22;10524;48.132;8.518;2023-03-25T08:49:43;9.10;99.90
20726;DHT22;10524;48.132;8.518;2023-03-25T08:52:08;9.80;99.90
20726;DHT22;10524;48.132;8.518;2023-03-25T08:54:35;10.60;99.90
20726;DHT22;10524;48.132;8.518;2023-03-25T08:57:00;9.80;99.90
20726;DHT22;10524;48.132;8.518;2023-03-25T08:59:26;9.80;99.90
20726;DHT22;10524;48.132;8.518;2023-03-25T09:01:52;9.40;99.90
20726;DHT22;10524;48.132;8.518;2023-03-25T09:04:18;8.40;99.90
20726;DHT22;10524;48.132;8.518;2023-03-25T09:06:44;7.80;99.90
20726;DHT22;10524;48.132;8.518;2023-03-25T09:09:10;8.10;99.90
20726;DHT22;10524;48.132;8.518;2023-03-25T09:11:37;8.40;99.90
20726;DHT22;10524;48.132;8.518;2023-03-25T09:14:03;8.20;99.90
20726;DHT22;10524;48.132;8.518;2023-03-25T09:16:32;8.00;99.90
20726;DHT22;10524;48.132;8.518;2023-03-25T09:18:58;7.70;99.90
20726;DHT22;10524;48.132;8.518;2023-03-25T09:21:24;7.40;99.90
20726;DHT22;10524;48.132;8.518;2023-03-25T09:23:50;7.30;99.90
20726;DHT22;10524;48.132;8.518;2023-03-25T09:26:16;7.20;99.90
20726;DHT22;10524;48.132;8.518;2023-03-25T09:28:41;7.30;99.90
20726;DHT22;10524;48.132;8.518;2023-03-25T09:31:07;7.90;99.90
20726;DHT22;10524;48.132;8.518;2023-03-25T09:33:34;7.90;99.90
20726;DHT22;10524;48.132;8.518;2023-03-25T09:35:59;8.10;99.90
20726;DHT22;10524;48.132;8.518;2023-03-25T09:38:26;8.20;99.90
20726;DHT22;10524;48.132;8.518;2023-03-25T09:40:52;8.00;99.90
20726;DHT22;10524;48.132;8.518;2023-03-25T09:46:05;8.60;99.90
20726;DHT22;10524;48.132;8.518;2023-03-25T09:48:41;9.70;99.90
20726;DHT22;10524;48.132;8.518;2023-03-25T09:51:28;11.00;99.90
20726;DHT22;10524;48.132;8.518;2023-03-25T09:54:24;11.50;99.90
20726;DHT22;10524;48.132;8.518;2023-03-25T09:56:54;12.50;99.90
20726;DHT22;10524;48.132;8.518;2023-03-25T09:59:22;14.00;99.90
20726;DHT22;10524;48.132;8.518;2023-03-25T10:10:34;14.90;99.90
20726;DHT22;10524;48.132;8.518;2023-03-25T10:19:09;17.90;99.90
20726;DHT22;10524;48.132;8.518;2023-03-25T10:21:53;16.30;99.90
20726;DHT22;10524;48.132;8.518;2023-03-25T10:24:39;14.60;99.90
20726;DHT22;10524;48.132;8.518;2023-03-25T10:27:20;16.30;99.90
20726;DHT22;10524;48.132;8.518;2023-03-25T10:32:44;17.70;99.90
20726;DHT22;10524;48.132;8.518;2023-03-25T10:35:19;16.10;99.90
20726;DHT22;10524;48.132;8.518;2023-03-25T10:37:49;17.10;99.90
20726;DHT22;10524;48.132;8.518;2023-03-25T10:40:23;16.50;99.90
20726;DHT22;10524;48.132;8.518;2023-03-25T10:46:07;16.20;99.90
20726;DHT22;10524;48.132;8.518;2023-03-25T10:48:37;17.40;99.90
20726;DHT22;10524;48.132;8.518;2023-03-25T10:51:12;17.90;99.90
20726;DHT22;10524;48.132;8.518;2023-03-25T10:53:40;19.30;99.90
20726;DHT22;10524;48.132;8.518;2023-03-25T10:56:14;20.50;99.90
20726;DHT22;10524;48.132;8.518;2023-03-25T10:58:44;18.70;99.90
20726;DHT22;10524;48.132;8.518;2023-03-25T11:01:16;17.10;99.90
20726;DHT22;10524;48.132;8.518;2023-03-25T11:03:49;16.20;99.90
20726;DHT22;10524;48.132;8.518;2023-03-25T11:06:29;16.10;99.90
20726;DHT22;10524;48.132;8.518;2023-03-25T11:09:17;16.10;99.90
20726;DHT22;10524;48.132;8.518;2023-03-25T11:11:48;16.50;99.90
20726;DHT22;10524;48.132;8.518;2023-03-25T11:14:15;16.50;99.90
20726;DHT22;10524;48.132;8.518;2023-03-25T11:16:43;15.90;99.90
20726;DHT22;10524;48.132;8.518;2023-03-25T11:19:40;15.70;99.90
20726;DHT22;10524;48.132;8.518;2023-03-25T11:22:22;18.40;99.90
20726;DHT22;10524;48.132;8.518;2023-03-25T11:24:51;19.10;99.90
20726;DHT22;10524;48.132;8.518;2023-03-25T11:27:25;18.60;99.90
20726;DHT22;10524;48.132;8.518;2023-03-25T11:30:03;18.50;99.90
20726;DHT22;10524;48.132;8.518;2023-03-25T11:32:34;18.00;99.90
20726;DHT22;10524;48.132;8.518;2023-03-25T11:35:06;18.40;99.90
20726;DHT22;10524;48.132;8.518;2023-03-25T11:37:45;17.40;99.90
20726;DHT22;10524;48.132;8.518;2023-03-25T11:40:16;18.10;99.90
20726;DHT22;10524;48.132;8.518;2023-03-25T11:42:44;17.40;99.90
20726;DHT22;10524;48.132;8.518;2023-03-25T11:45:36;17.50;99.90
20726;DHT22;10524;48.132;8.518;2023-03-25T11:48:20;17.60;99.90
20726;DHT22;10524;48.132;8.518;2023-03-25T11:50:57;18.20;99.90
20726;DHT22;10524;48.132;8.518;2023-03-25T11:53:25;16.90;99.90
20726;DHT22;10524;48.132;8.518;2023-03-25T11:56:00;16.30;99.90
20726;DHT22;10524;48.132;8.518;2023-03-25T11:58:34;16.40;99.90
20726;DHT22;10524;48.132;8.518;2023-03-25T12:01:09;15.70;99.90
20726;DHT22;10524;48.132;8.518;2023-03-25T12:03:44;15.90;99.90
20726;DHT22;10524;48.132;8.518;2023-03-25T12:06:21;16.20;99.90
20726;DHT22;10524;48.132;8.518;2023-03-25T12:08:55;16.50;99.90
20726;DHT22;10524;48.132;8.518;2023-03-25T12:11:35;17.30;99.90
20726;DHT22;10524;48.132;8.518;2023-03-25T12:14:32;18.00;99.90
20726;DHT22;10524;48.132;8.518;2023-03-25T12:19:44;17.50;99.90
20726;DHT22;10524;48.132;8.518;2023-03-25T12:28:23;18.10;99.90
20726;DHT22;10524;48.132;8.518;2023-03-25T12:37:14;16.30;99.90
20726;DHT22;10524;48.132;8.518;2023-03-25T12:39:21;17.40;99.90
20726;DHT22;10524;48.132;8.518;2023-03-25T12:42:18;16.70;99.90
20726;DHT22;10524;48.132;8.518;2023-03-25T12:47:35;18.20;99.90
20726;DHT22;10524;48.132;8.518;2023-03-25T12:55:57;17.70;99.90
20726;DHT22;10524;48.132;8.518;2023-03-25T13:01:05;17.00;99.90
20726;DHT22;10524;48.132;8.518;2023-03-25T13:03:44;16.80;99.90
20726;DHT22;10524;48.132;8.518;2023-03-25T13:06:36;16.80;99.90
20726;DHT22;10524;48.132;8.518;2023-03-25T13:09:10;16.10;99.90
20726;DHT22;10524;48.132;8.518;2023-03-25T13:11:42;16.30;99.90
20726;DHT22;10524;48.132;8.518;2023-03-25T13:14:15;16.90;99.90
20726;DHT22;10524;48.132;8.518;2023-03-25T13:16:43;18.70;99.90
20726;DHT22;10524;48.132;8.518;2023-03-25T13:19:13;19.50;99.90
20726;DHT22;10524;48.132;8.518;2023-03-25T13:21:42;18.90;99.90
20726;DHT22;10524;48.132;8.518;2023-03-25T13:24:15;16.90;99.90
20726;DHT22;10524;48.132;8.518;2023-03-25T13:26:43;16.40;99.90
20726;DHT22;10524;48.132;8.518;2023-03-25T13:31:51;15.60;99.90
20726;DHT22;10524;48.132;8.518;2023-03-25T13:34:41;16.90;99.90
20726;DHT22;10524;48.132;8.518;2023-03-25T13:39:48;14.70;99.90
20726;DHT22;10524;48.132;8.518;2023-03-25T13:42:21;15.20;99.90
20726;DHT22;10524;48.132;8.518;2023-03-25T13:44:50;16.90;99.90
20726;DHT22;10524;48.132;8.518;2023-03-25T13:47:22;17.00;99.90
20726;DHT22;10524;48.132;8.518;2023-03-25T13:50:04;16.60;99.90
20726;DHT22;10524;48.132;8.518;2023-03-25T13:52:38;16.30;99.90
20726;DHT22;10524;48.132;8.518;2023-03-25T13:55:15;16.20;99.90
20726;DHT22;10524;48.132;8.518;2023-03-25T14:01:10;11.70;99.90
20726;DHT22;10524;48.132;8.518;2023-03-25T14:12:35;12.60;99.90
20726;DHT22;10524;48.132;8.518;2023-03-25T14:17:37;13.30;99.90
20726;DHT22;10524;48.132;8.518;2023-03-25T14:20:05;13.60;99.90
20726;DHT22;10524;48.132;8.518;2023-03-25T14:22:36;14.50;99.90
20726;DHT22;10524;48.132;8.518;2023-03-25T14:25:04;15.10;99.90
20726;DHT22;10524;48.132;8.518;2023-03-25T14:27:32;15.70;99.90
20726;DHT22;10524;48.132;8.518;2023-03-25T14:30:01;15.30;99.90
20726;DHT22;10524;48.132;8.518;2023-03-25T14:32:40;15.50;99.90
20726;DHT22;10524;48.132;8.518;2023-03-25T14:43:37;15.60;99.90
20726;DHT22;10524;48.132;8.518;2023-03-25T14:56:33;10.80;99.90
20726;DHT22;10524;48.132;8.518;2023-03-25T14:59:13;10.70;99.90
20726;DHT22;10524;48.132;8.518;2023-03-25T15:01:42;12.50;99.90
20726;DHT22;10524;48.132;8.518;2023-03-25T15:04:35;14.20;99.90
20726;DHT22;10524;48.132;8.518;2023-03-25T15:07:02;14.50;99.90
20726;DHT22;10524;48.132;8.518;2023-03-25T15:09:30;14.60;99.90
20726;DHT22;10524;48.132;8.518;2023-03-25T15:11:59;14.30;99.90
20726;DHT22;10524;48.132;8.518;2023-03-25T15:14:28;14.50;99.90
20726;DHT22;10524;48.132;8.518;2023-03-25T15:17:08;14.60;99.90
20726;DHT22;10524;48.132;8.518;2023-03-25T15:22:35;14.50;99.90
20726;DHT22;10524;48.132;8.518;2023-03-25T15:25:10;13.70;99.90
20726;DHT22;10524;48.132;8.518;2023-03-25T15:27:55;13.80;99.90
20726;DHT22;10524;48.132;8.518;2023-03-25T15:33:33;13.50;99.90
20726;DHT22;10524;48.132;8.518;2023-03-25T15:56:10;13.70;99.90
20726;DHT22;10524;48.132;8.518;2023-03-25T15:58:48;12.70;99.90
20726;DHT22;10524;48.132;8.518;2023-03-25T16:01:31;11.80;99.90
20726;DHT22;10524;48.132;8.518;2023-03-25T16:06:25;10.20;99.90
20726;DHT22;10524;48.132;8.518;2023-03-25T16:08:51;9.50;99.90
20726;DHT22;10524;48.132;8.518;2023-03-25T16:14:01;10.40;99.90
20726;DHT22;10524;48.132;8.518;2023-03-25T16:16:28;11.30;99.90
20726;DHT22;10524;48.132;8.518;2023-03-25T16:18:58;11.50;99.90
20726;DHT22;10524;48.132;8.518;2023-03-25T16:21:28;12.00;99.90
20726;DHT22;10524;48.132;8.518;2023-03-25T16:23:55;12.00;99.90
20726;DHT22;10524;48.132;8.518;2023-03-25T16:26:38;11.90;99.90
20726;DHT22;10524;48.132;8.518;2023-03-25T16:29:16;12.10;99.90
20726;DHT22;10524;48.132;8.518;2023-03-25T16:31:57;12.50;99.90
20726;DHT22;10524;48.132;8.518;2023-03-25T16:34:24;12.10;99.90
20726;DHT22;10524;48.132;8.518;2023-03-25T16:36:50;10.70;99.90
20726;DHT22;10524;48.132;8.518;2023-03-25T16:39:18;9.70;99.90
20726;DHT22;10524;48.132;8.518;2023-03-25T16:41:49;9.00;99.90
20726;DHT22;10524;48.132;8.518;2023-03-25T16:44:17;8.70;99.90
20726;DHT22;10524;48.132;8.518;2023-03-25T16:46:45;8.60;99.90
20726;DHT22;10524;48.132;8.518;2023-03-25T16:49:13;8.10;99.90
20726;DHT22;10524;48.132;8.518;2023-03-25T16:51:43;7.80;99.90
20726;DHT22;10524;48.132;8.518;2023-03-25T16:54:18;7.90;99.90
20726;DHT22;10524;48.132;8.518;2023-03-25T16:56:46;7.70;99.90
20726;DHT22;10524;48.132;8.518;2023-03-25T16:59:27;7.50;99.90
20726;DHT22;10524;48.132;8.518;2023-03-25T17:01:55;7.30;99.90
20726;DHT22;10524;48.132;8.518;2023-03-25T17:04:25;7.30;99.90
20726;DHT22;10524;48.132;8.518;2023-03-25T17:06:59;7.20;99.90
20726;DHT22;10524;48.132;8.518;2023-03-25T17:09:28;7.10;99.90
20726;DHT22;10524;48.132;8.518;2023-03-25T17:12:00;7.00;99.90
20726;DHT22;10524;48.132;8.518;2023-03-25T17:14:31;6.90;99.90
20726;DHT22;10524;48.132;8.518;2023-03-25T17:17:02;6.80;99.90
20726;DHT22;10524;48.132;8.518;2023-03-25T17:19:31;6.80;99.90
20726;DHT22;10524;48.132;8.518;2023-03-25T17:22:06;6.70;99.90
20726;DHT22;10524;48.132;8.518;2023-03-25T17:24:55;6.70;99.90
20726;DHT22;10524;48.132;8.518;2023-03-25T17:27:33;6.50;99.90
20726;DHT22;10524;48.132;8.518;2023-03-25T17:30:18;6.50;99.90
20726;DHT22;10524;48.132;8.518;2023-03-25T17:32:45;6.40;99.90
20726;DHT22;10524;48.132;8.518;2023-03-25T17:35:18;6.40;99.90
20726;DHT22;10524;48.132;8.518;2023-03-25T17:37:49;6.30;99.90
20726;DHT22;10524;48.132;8.518;2023-03-25T17:40:23;6.30;99.90
20726;DHT22;10524;48.132;8.518;2023-03-25T17:42:54;6.20;99.90
20726;DHT22;10524;48.132;8.518;2023-03-25T17:45:22;6.40;99.90
20726;DHT22;10524;48.132;8.518;2023-03-25T17:47:49;6.40;99.90
20726;DHT22;10524;48.132;8.518;2023-03-25T17:50:21;6.60;99.90
20726;DHT22;10524;48.132;8.518;2023-03-25T17:52:47;6.70;99.90
20726;DHT22;10524;48.132;8.518;2023-03-25T17:55:13;6.80;99.90
20726;DHT22;10524;48.132;8.518;2023-03-25T17:57:39;6.90;99.90
20726;DHT22;10524;48.132;8.518;2023-03-25T18:00:07;6.90;99.90
20726;DHT22;10524;48.132;8.518;2023-03-25T18:02:36;6.90;99.90
20726;DHT22;10524;48.132;8.518;2023-03-25T18:05:03;6.70;99.90
20726;DHT22;10524;48.132;8.518;2023-03-25T18:07:32;6.50;99.90
20726;DHT22;10524;48.132;8.518;2023-03-25T18:09:58;6.40;99.90
20726;DHT22;10524;48.132;8.518;2023-03-25T18:12:23;6.40;99.90
20726;DHT22;10524;48.132;8.518;2023-03-25T18:14:49;6.20;99.90
20726;DHT22;10524;48.132;8.518;2023-03-25T18:17:15;6.10;99.90
20726;DHT22;10524;48.132;8.518;2023-03-25T18:19:41;6.10;99.90
20726;DHT22;10524;48.132;8.518;2023-03-25T18:22:08;6.10;99.90
20726;DHT22;10524;48.132;8.518;2023-03-25T18:24:36;6.10;99.90
20726;DHT22;10524;48.132;8.518;2023-03-25T18:27:02;6.10;99.90
20726;DHT22;10524;48.132;8.518;2023-03-25T18:29:29;6.00;99.90
20726;DHT22;10524;48.132;8.518;2023-03-25T18:31:56;5.80;99.90
20726;DHT22;10524;48.132;8.518;2023-03-25T18:34:23;5.50;99.90
20726;DHT22;10524;48.132;8.518;2023-03-25T18:36:51;5.40;99.90
20726;DHT22;10524;48.132;8.518;2023-03-25T18:39:22;5.30;99.90